createdAt,value
2022-11-06T00:00:27.499Z,19.50
2022-11-06T00:02:59.818Z,19.73
2022-11-06T00:05:41.864Z,18.42
2022-11-06T00:08:11.636Z,17.92
2022-11-06T00:10:41.332Z,17.38
2022-11-06T00:13:13.405Z,19.05
2022-11-06T00:15:42.838Z,19.73
2022-11-06T00:18:12.486Z,21.23
2022-11-06T00:20:42.148Z,19.00
2022-11-06T00:23:11.631Z,18.15
2022-11-06T00:25:43.407Z,20.55
2022-11-06T00:28:15.650Z,20.70
2022-11-06T00:30:45.269Z,19.42
2022-11-06T00:33:14.749Z,18.70
2022-11-06T00:35:44.229Z,20.48
2022-11-06T00:38:21.513Z,19.92
2022-11-06T00:40:50.952Z,19.02
2022-11-06T00:43:23.109Z,21.92
2022-11-06T00:45:52.533Z,21.08
2022-11-06T00:48:22.024Z,21.98
2022-11-06T00:50:51.459Z,23.13
2022-11-06T00:53:21.134Z,22.58
2022-11-06T00:55:50.579Z,22.98
2022-11-06T00:58:20.046Z,19.33
2022-11-06T01:00:52.066Z,21.13
2022-11-06T01:03:21.487Z,21.90
2022-11-06T01:05:50.951Z,20.67
2022-11-06T01:08:20.394Z,21.75
2022-11-06T01:10:49.860Z,18.42
2022-11-06T01:13:19.323Z,21.00
2022-11-06T01:15:48.771Z,20.65
2022-11-06T01:18:20.793Z,21.05
2022-11-06T01:20:50.269Z,20.02
2022-11-06T01:23:19.682Z,19.33
2022-11-06T01:25:58.935Z,19.80
2022-11-06T01:28:28.369Z,20.23
2022-11-06T01:30:57.856Z,19.85
2022-11-06T01:33:29.874Z,18.48
2022-11-06T01:35:59.322Z,19.83
2022-11-06T01:38:28.745Z,19.77
2022-11-06T01:40:58.217Z,19.67
2022-11-06T01:43:28.851Z,17.55
2022-11-06T01:45:58.501Z,19.52
2022-11-06T01:48:30.535Z,20.70
2022-11-06T01:51:01.126Z,20.45
2022-11-06T01:53:30.571Z,17.58
2022-11-06T01:56:02.528Z,20.35
2022-11-06T01:58:33.877Z,19.67
2022-11-06T02:01:03.314Z,18.60
2022-11-06T02:03:35.323Z,21.05
2022-11-06T02:06:04.765Z,19.38
2022-11-06T02:08:34.222Z,20.58
2022-11-06T02:11:03.639Z,24.83
2022-11-06T02:13:38.125Z,21.55
2022-11-06T02:16:12.360Z,21.58
2022-11-06T02:19:05.199Z,21.05
2022-11-06T02:21:55.401Z,20.70
2022-11-06T02:24:45.111Z,22.20
2022-11-06T02:27:17.616Z,19.60
2022-11-06T02:29:52.340Z,21.70
2022-11-06T02:32:24.320Z,19.65
2022-11-06T02:34:54.499Z,19.70
2022-11-06T02:37:26.602Z,21.37
2022-11-06T02:39:56.183Z,22.38
2022-11-06T02:42:28.688Z,21.15
2022-11-06T02:44:58.438Z,20.90
2022-11-06T02:47:28.538Z,17.77
2022-11-06T02:49:59.038Z,20.08
2022-11-06T02:52:29.759Z,19.50
2022-11-06T02:55:02.747Z,18.00
2022-11-06T02:57:35.703Z,22.10
2022-11-06T03:00:06.622Z,18.90
2022-11-06T03:02:40.903Z,18.83
2022-11-06T03:05:12.343Z,18.83
2022-11-06T03:07:43.246Z,18.13
2022-11-06T03:10:13.010Z,19.05
2022-11-06T03:12:50.724Z,20.48
2022-11-06T03:15:24.053Z,19.02
2022-11-06T03:17:54.743Z,16.58
2022-11-06T03:20:26.470Z,20.63
2022-11-06T03:22:58.239Z,20.00
2022-11-06T03:25:29.715Z,18.35
2022-11-06T03:28:05.143Z,18.55
2022-11-06T03:30:34.995Z,20.10
2022-11-06T03:33:07.438Z,18.35
2022-11-06T03:35:38.364Z,18.52
2022-11-06T03:38:10.668Z,18.67
2022-11-06T03:40:45.596Z,18.98
2022-11-06T03:43:19.074Z,16.33
2022-11-06T03:45:48.625Z,17.70
2022-11-06T03:48:21.552Z,16.42
2022-11-06T03:50:53.042Z,15.80
2022-11-06T03:53:25.083Z,16.52
2022-11-06T03:55:56.181Z,16.63
2022-11-06T04:00:58.427Z,16.85
2022-11-06T04:03:29.664Z,18.95
2022-11-06T04:06:01.529Z,17.27
2022-11-06T04:08:55.460Z,16.52
2022-11-06T04:11:38.618Z,17.25
2022-11-06T04:14:10.756Z,17.60
2022-11-06T04:16:41.423Z,16.58
2022-11-06T04:19:13.800Z,17.83
2022-11-06T04:21:50.241Z,18.20
2022-11-06T04:24:43.415Z,19.55
2022-11-06T04:27:29.211Z,18.50
2022-11-06T04:30:09.627Z,18.92
2022-11-06T04:33:00.100Z,17.48
2022-11-06T04:35:33.595Z,17.25
2022-11-06T04:38:05.649Z,16.38
2022-11-06T04:40:38.518Z,17.80
2022-11-06T04:43:09.354Z,17.58
2022-11-06T04:45:43.321Z,18.63
2022-11-06T04:48:12.959Z,20.95
2022-11-06T04:50:44.687Z,20.38
2022-11-06T04:53:14.247Z,17.73
2022-11-06T04:55:49.154Z,18.80
2022-11-06T04:58:18.702Z,18.15
2022-11-06T05:00:51.767Z,18.65
2022-11-06T05:03:21.643Z,16.85
2022-11-06T05:05:51.188Z,16.73
2022-11-06T05:08:22.474Z,19.83
2022-11-06T05:10:51.997Z,18.60
2022-11-06T05:13:21.538Z,18.00
2022-11-06T05:15:57.724Z,15.98
2022-11-06T05:18:27.308Z,16.60
2022-11-06T05:21:17.401Z,16.10
2022-11-06T05:23:44.382Z,15.85
2022-11-06T05:26:13.949Z,15.18
2022-11-06T05:28:43.769Z,18.48
2022-11-06T05:31:15.995Z,14.07
2022-11-06T05:33:45.546Z,13.52
2022-11-06T05:36:15.311Z,15.65
2022-11-06T05:38:44.912Z,14.15
2022-11-06T05:41:14.452Z,14.27
2022-11-06T05:43:44.308Z,14.63
2022-11-06T05:46:46.539Z,14.00
2022-11-06T05:49:06.276Z,16.00
2022-11-06T05:51:35.925Z,15.52
2022-11-06T05:54:05.505Z,15.15
2022-11-06T05:56:35.032Z,15.55
2022-11-06T05:59:04.595Z,15.43
2022-11-06T06:01:36.818Z,16.73
2022-11-06T06:04:08.173Z,14.73
2022-11-06T06:06:37.696Z,17.85
2022-11-06T06:09:07.316Z,14.80
2022-11-06T06:11:36.935Z,15.77
2022-11-06T06:14:06.502Z,14.38
2022-11-06T06:16:38.746Z,15.63
2022-11-06T06:19:08.376Z,14.02
2022-11-06T06:21:37.899Z,15.82
2022-11-06T06:24:08.165Z,14.57
2022-11-06T06:26:37.673Z,15.97
2022-11-06T06:29:07.236Z,14.43
2022-11-06T06:31:39.446Z,15.75
2022-11-06T06:34:09.021Z,12.85
2022-11-06T06:36:38.561Z,14.57
2022-11-06T06:39:08.120Z,14.50
2022-11-06T06:41:37.631Z,13.73
2022-11-06T06:44:07.749Z,15.32
2022-11-06T06:46:39.919Z,14.73
2022-11-06T06:49:09.523Z,15.45
2022-11-06T06:51:39.058Z,16.67
2022-11-06T06:54:08.930Z,15.80
2022-11-06T06:56:38.491Z,17.25
2022-11-06T06:59:08.076Z,16.35
2022-11-06T07:01:40.326Z,13.70
2022-11-06T07:04:09.965Z,12.30
2022-11-06T07:06:39.502Z,14.52
2022-11-06T07:09:09.529Z,13.07
2022-11-06T07:11:39.120Z,15.82
2022-11-06T07:14:08.662Z,15.50
2022-11-06T07:16:40.813Z,15.40
2022-11-06T07:19:10.334Z,19.20
2022-11-06T07:21:39.759Z,17.92
2022-11-06T07:24:09.476Z,15.60
2022-11-06T07:26:38.927Z,20.85
2022-11-06T07:29:08.365Z,15.80
2022-11-06T07:31:40.398Z,17.00
2022-11-06T07:34:09.853Z,18.05
2022-11-06T07:36:39.280Z,18.48
2022-11-06T07:39:08.718Z,19.15
2022-11-06T07:41:38.173Z,18.60
2022-11-06T07:44:07.639Z,20.75
2022-11-06T09:11:28.491Z,21.55
2022-11-06T09:14:00.564Z,22.13
2022-11-06T09:16:30.030Z,23.35
2022-11-06T09:18:59.561Z,23.17
2022-11-06T09:21:29.013Z,21.08
2022-11-06T09:23:58.469Z,24.15
2022-11-06T09:26:27.909Z,23.15
2022-11-06T09:28:59.996Z,21.88
2022-11-06T09:31:29.583Z,21.83
2022-11-06T09:33:59.024Z,22.27
2022-11-06T09:36:28.496Z,22.17
2022-11-06T09:38:57.944Z,23.75
2022-11-06T09:41:36.258Z,22.80
2022-11-06T09:44:15.661Z,22.52
2022-11-06T09:46:46.282Z,24.20
2022-11-06T09:49:20.145Z,22.55
2022-11-06T09:51:51.503Z,23.05
2022-11-06T09:54:22.792Z,25.23
2022-11-06T09:56:52.967Z,22.98
2022-11-06T09:59:24.971Z,23.67
2022-11-06T10:01:55.627Z,25.40
2022-11-06T10:04:31.557Z,23.80
2022-11-06T10:07:00.993Z,25.00
2022-11-06T10:09:30.468Z,24.10
2022-11-06T10:12:05.830Z,23.27
2022-11-06T10:14:46.027Z,22.60
2022-11-06T10:17:20.400Z,22.98
2022-11-06T10:19:51.709Z,22.88
2022-11-06T10:22:23.437Z,20.85
2022-11-06T10:24:57.411Z,19.73
2022-11-06T10:27:28.830Z,18.27
2022-11-06T10:30:06.807Z,18.73
2022-11-06T10:33:09.791Z,17.23
2022-11-06T10:35:40.307Z,17.42
2022-11-06T10:38:13.220Z,16.92
2022-11-06T10:40:42.936Z,17.05
2022-11-06T10:43:19.167Z,16.30
2022-11-06T10:45:53.112Z,16.35
2022-11-06T10:48:30.859Z,15.77
2022-11-06T10:51:08.014Z,17.88
2022-11-06T10:53:41.136Z,16.42
2022-11-06T10:56:23.250Z,16.75
2022-11-06T10:58:52.671Z,17.25
2022-11-06T11:01:24.764Z,17.17
2022-11-06T11:03:54.335Z,17.50
2022-11-06T11:06:23.812Z,16.90
2022-11-06T11:08:53.569Z,19.50
2022-11-06T11:11:25.294Z,20.05
2022-11-06T11:14:15.299Z,20.02
2022-11-06T11:16:47.946Z,19.13
2022-11-06T11:19:19.123Z,18.90
2022-11-06T11:24:24.127Z,17.42
2022-11-06T11:26:54.493Z,18.65
2022-11-06T11:29:26.369Z,17.88
2022-11-06T11:31:59.249Z,17.48
2022-11-06T11:34:29.659Z,19.50
2022-11-06T11:37:00.804Z,17.25
2022-11-06T11:42:19.679Z,18.30
2022-11-06T11:44:49.147Z,19.25
2022-11-06T11:47:27.151Z,20.58
2022-11-06T11:49:56.573Z,17.27
2022-11-06T11:52:26.079Z,19.00
2022-11-06T11:54:55.891Z,20.05
2022-11-06T11:57:26.586Z,18.13
2022-11-06T11:59:57.098Z,18.65
2022-11-06T12:02:30.208Z,20.38
2022-11-06T12:05:00.618Z,18.77
2022-11-06T12:07:31.232Z,17.25
2022-11-06T12:10:00.744Z,18.88
2022-11-06T12:12:32.648Z,16.95
2022-11-06T12:15:17.697Z,17.38
2022-11-06T12:17:51.997Z,17.27
2022-11-06T12:20:23.078Z,17.90
2022-11-06T12:25:25.050Z,15.68
2022-11-06T12:27:56.257Z,16.35
2022-11-06T12:30:25.693Z,15.85
2022-11-06T12:33:04.259Z,18.23
2022-11-06T12:35:34.382Z,17.33
2022-11-06T12:38:08.614Z,15.55
2022-11-06T12:40:40.477Z,16.10
2022-11-06T12:43:19.131Z,15.98
2022-11-06T12:45:58.384Z,16.70
2022-11-06T12:48:37.485Z,14.05
2022-11-06T12:51:08.854Z,16.88
2022-11-06T12:53:43.872Z,15.70
2022-11-06T12:56:17.420Z,14.25
2022-11-06T12:59:00.777Z,14.60
2022-11-06T13:01:37.435Z,15.23
2022-11-06T13:04:17.926Z,17.25
2022-11-06T13:07:11.478Z,17.17
2022-11-06T13:09:43.613Z,14.93
2022-11-06T13:12:16.746Z,14.50
2022-11-06T13:14:50.042Z,14.52
2022-11-06T13:17:21.571Z,16.60
2022-11-06T13:19:55.847Z,14.55
2022-11-06T13:22:27.820Z,16.15
2022-11-06T13:25:01.081Z,14.55
2022-11-06T13:27:34.166Z,14.68
2022-11-06T13:30:05.617Z,15.35
2022-11-06T13:32:35.801Z,14.73
2022-11-06T13:35:08.178Z,14.90
2022-11-06T13:37:41.696Z,15.07
2022-11-06T13:40:20.224Z,13.48
2022-11-06T13:42:51.836Z,14.52
2022-11-06T13:45:21.348Z,12.85
2022-11-06T13:47:58.574Z,13.23
2022-11-06T13:50:34.002Z,14.18
2022-11-06T13:53:06.038Z,12.88
2022-11-06T13:55:41.901Z,13.45
2022-11-06T13:58:24.648Z,14.75
2022-11-06T14:01:02.537Z,15.07
2022-11-06T14:03:44.236Z,13.20
2022-11-06T14:06:17.673Z,13.38
2022-11-06T14:08:47.671Z,13.63
2022-11-06T14:11:18.270Z,13.13
2022-11-06T14:13:59.906Z,13.43
2022-11-06T14:16:31.231Z,13.80
2022-11-06T14:19:03.506Z,14.70
2022-11-06T14:21:58.385Z,13.52
2022-11-06T14:24:36.569Z,14.88
2022-11-06T14:27:06.756Z,15.43
2022-11-06T14:30:05.395Z,11.73
2022-11-06T14:32:43.026Z,13.05
2022-11-06T14:35:51.288Z,13.52
2022-11-06T14:38:36.670Z,13.13
2022-11-06T14:41:23.071Z,13.60
2022-11-06T14:43:52.518Z,12.75
2022-11-06T14:46:22.992Z,11.65
2022-11-06T14:48:53.663Z,11.05
2022-11-06T14:51:28.739Z,9.88
2022-11-06T14:54:01.632Z,9.63
2022-11-06T14:56:32.344Z,8.82
2022-11-06T14:59:03.503Z,12.07
2022-11-06T15:04:04.047Z,9.82
2022-11-06T15:06:43.431Z,10.98
2022-11-06T15:09:18.851Z,10.82
2022-11-06T15:11:55.493Z,10.70
2022-11-06T15:14:55.041Z,11.18
2022-11-06T15:17:25.016Z,11.40
2022-11-06T15:20:00.427Z,10.63
2022-11-06T15:22:34.231Z,10.75
2022-11-06T15:25:15.648Z,11.13
2022-11-06T15:27:46.293Z,10.10
2022-11-06T15:30:18.049Z,10.55
2022-11-06T15:32:47.784Z,9.38
2022-11-06T15:35:18.566Z,9.48
2022-11-06T15:37:48.770Z,11.95
2022-11-06T15:40:31.207Z,11.33
2022-11-06T15:43:02.666Z,10.90
2022-11-06T15:45:32.278Z,11.38
2022-11-06T15:48:02.991Z,11.02
2022-11-06T15:50:32.673Z,10.68
2022-11-06T15:53:29.456Z,12.10
2022-11-06T15:56:02.726Z,10.32
2022-11-06T15:58:33.292Z,13.55
2022-11-06T16:01:03.198Z,12.77
2022-11-06T16:03:34.078Z,13.35
2022-11-06T16:06:04.630Z,12.43
2022-11-06T16:08:34.156Z,13.27
2022-11-06T16:11:12.297Z,12.50
2022-11-06T16:13:42.774Z,12.32
2022-11-06T16:16:37.182Z,13.13
2022-11-06T16:19:07.568Z,12.00
2022-11-06T16:21:37.647Z,13.70
2022-11-06T16:24:12.432Z,12.88
2022-11-06T16:26:47.370Z,13.10
2022-11-06T16:29:20.556Z,11.85
2022-11-06T16:31:51.020Z,12.68
2022-11-06T16:34:24.595Z,14.10
2022-11-06T16:36:55.867Z,11.57
2022-11-06T16:39:49.933Z,13.63
2022-11-06T16:42:29.234Z,12.38
2022-11-06T16:45:17.474Z,13.15
2022-11-06T16:47:58.314Z,11.50
2022-11-06T16:50:46.345Z,13.07
2022-11-06T16:53:16.894Z,12.45
2022-11-06T16:55:46.418Z,12.23
2022-11-06T16:58:19.214Z,14.02
2022-11-06T17:00:48.648Z,13.98
2022-11-06T17:03:21.863Z,12.90
2022-11-06T17:05:53.852Z,12.93
2022-11-06T17:08:27.715Z,13.90
2022-11-06T17:10:57.289Z,13.70
2022-11-06T17:13:30.006Z,13.32
2022-11-06T17:16:00.446Z,13.07
2022-11-06T17:18:31.236Z,14.48
2022-11-06T17:21:01.699Z,13.13
2022-11-06T17:23:31.842Z,14.38
2022-11-06T17:26:02.152Z,14.85
2022-11-06T17:28:34.216Z,14.10
2022-11-06T17:31:03.700Z,13.60
2022-11-06T17:33:33.160Z,15.20
2022-11-06T17:36:02.909Z,12.75
2022-11-06T17:38:32.379Z,13.10
2022-11-06T17:41:01.831Z,14.82
2022-11-06T17:43:33.951Z,15.13
2022-11-06T17:46:03.823Z,13.73
2022-11-06T17:48:33.323Z,14.63
2022-11-06T17:51:15.259Z,13.80
2022-11-06T17:53:44.728Z,14.52
2022-11-06T17:56:14.189Z,14.15
2022-11-06T17:58:46.238Z,14.23
2022-11-06T18:01:15.731Z,15.15
2022-11-06T18:03:46.253Z,14.38
2022-11-06T18:06:16.892Z,14.52
2022-11-06T18:08:46.557Z,13.32
2022-11-06T18:11:16.129Z,15.20
2022-11-06T18:13:48.182Z,14.75
2022-11-06T18:16:18.247Z,15.93
2022-11-06T18:18:47.727Z,14.38
2022-11-06T18:21:17.233Z,14.82
2022-11-06T18:23:46.775Z,14.38
2022-11-06T18:26:16.229Z,14.27
2022-11-06T18:28:48.294Z,16.45
2022-11-06T18:31:17.747Z,13.77
2022-11-06T18:33:47.346Z,12.65
2022-11-06T18:36:17.183Z,14.18
2022-11-06T18:38:46.980Z,40.97
2022-11-06T18:41:17.266Z,23.25
2022-11-06T18:43:49.420Z,17.80
2022-11-06T18:46:19.712Z,14.10
2022-11-06T18:48:49.571Z,12.10
2022-11-06T18:51:33.491Z,12.38
2022-11-06T18:54:04.700Z,16.13
2022-11-06T18:56:36.007Z,17.42
2022-11-06T18:59:08.954Z,18.35
2022-11-06T19:01:39.123Z,18.92
2022-11-06T19:04:10.681Z,21.10
2022-11-06T19:06:40.987Z,17.55
2022-11-06T19:09:10.700Z,18.20
2022-11-06T19:11:40.162Z,19.02
2022-11-06T19:14:12.218Z,19.02
2022-11-06T19:16:43.388Z,17.00
2022-11-06T19:21:46.181Z,16.88
2022-11-06T19:24:15.720Z,18.38
2022-11-06T19:26:45.320Z,18.30
2022-11-06T19:29:17.423Z,19.95
2022-11-06T19:31:46.906Z,20.35
2022-11-06T19:34:16.705Z,19.17
2022-11-06T19:36:46.343Z,20.40
2022-11-06T19:39:15.931Z,19.52
2022-11-06T19:41:45.402Z,19.13
2022-11-06T19:44:17.694Z,20.10
2022-11-06T19:46:47.180Z,21.02
2022-11-06T19:49:16.683Z,18.55
2022-11-06T19:51:46.133Z,16.83
2022-11-06T19:54:15.616Z,16.67
2022-11-06T19:57:29.220Z,17.63
2022-11-06T19:59:37.568Z,16.42
2022-11-06T20:02:07.160Z,14.80
2022-11-06T20:04:36.773Z,15.77
2022-11-06T20:07:06.248Z,18.98
2022-11-06T20:09:36.274Z,19.92
2022-11-06T20:12:06.104Z,17.70
2022-11-06T20:14:38.188Z,19.13
2022-11-06T20:17:07.649Z,18.42
2022-11-06T20:19:37.177Z,15.85
2022-11-06T20:22:06.662Z,16.77
2022-11-06T20:24:37.931Z,15.18
2022-11-06T20:27:11.390Z,14.68
2022-11-06T20:29:44.220Z,14.27
2022-11-06T20:32:18.680Z,12.77
2022-11-06T20:34:48.507Z,16.40
2022-11-06T20:37:17.975Z,13.20
2022-11-06T20:39:47.632Z,11.77
2022-11-06T20:42:17.145Z,12.48
2022-11-06T20:44:49.206Z,12.27
2022-11-06T20:47:19.168Z,11.90
2022-11-06T20:49:48.797Z,11.77
2022-11-06T20:52:18.278Z,12.35
2022-11-06T20:54:47.979Z,12.23
2022-11-06T20:57:17.689Z,12.05
2022-11-06T20:59:49.763Z,12.10
2022-11-06T21:02:19.410Z,12.90
2022-11-06T21:04:48.966Z,11.30
2022-11-06T21:07:18.432Z,12.55
2022-11-06T21:09:48.323Z,11.63
2022-11-06T21:12:17.786Z,10.90
2022-11-06T21:14:49.838Z,12.93
2022-11-06T21:17:19.342Z,12.02
2022-11-06T21:19:48.820Z,11.20
2022-11-06T21:22:18.288Z,12.75
2022-11-06T21:24:47.774Z,13.25
2022-11-06T21:27:17.264Z,12.50
2022-11-06T21:29:49.377Z,12.20
2022-11-06T21:32:18.864Z,11.20
2022-11-06T21:34:48.337Z,12.18
2022-11-06T21:37:17.817Z,10.00
2022-11-06T21:39:47.419Z,11.93
2022-11-06T21:42:16.960Z,9.70
2022-11-06T21:44:49.070Z,9.90
2022-11-06T21:47:18.590Z,10.73
2022-11-06T21:49:54.028Z,12.05
2022-11-06T21:52:36.331Z,11.35
2022-11-06T21:55:18.444Z,10.60
2022-11-06T21:57:47.963Z,17.25
2022-11-06T22:00:20.534Z,14.75
2022-11-06T22:02:51.099Z,13.07
2022-11-06T22:05:20.993Z,10.75
2022-11-06T22:07:50.647Z,10.35
2022-11-06T22:10:20.459Z,11.52
2022-11-06T22:12:49.953Z,12.18
2022-11-06T22:15:22.045Z,13.85
2022-11-06T22:17:51.486Z,9.35
2022-11-06T22:20:21.186Z,11.07
2022-11-06T22:22:50.800Z,10.07
2022-11-06T22:25:20.406Z,9.70
2022-11-06T22:27:50.023Z,10.13
2022-11-06T22:30:22.209Z,8.88
2022-11-06T22:32:51.748Z,8.73
2022-11-06T22:35:21.215Z,9.73
2022-11-06T22:37:50.682Z,8.65
2022-11-06T22:40:20.464Z,8.80
2022-11-06T22:42:49.960Z,7.45
2022-11-06T22:47:52.862Z,8.20
2022-11-06T22:50:22.448Z,7.00
2022-11-06T22:52:52.058Z,9.60
2022-11-06T22:55:21.522Z,7.93
2022-11-06T22:57:50.986Z,8.57
2022-11-06T23:00:23.935Z,8.32
2022-11-06T23:02:53.489Z,8.48
2022-11-06T23:05:23.184Z,10.65
2022-11-06T23:07:52.688Z,10.70
2022-11-06T23:10:28.872Z,11.48
2022-11-06T23:12:59.241Z,9.63
2022-11-06T23:15:31.557Z,8.65
2022-11-06T23:18:01.025Z,10.30
2022-11-06T23:20:32.583Z,9.18
2022-11-06T23:23:02.152Z,10.50
2022-11-06T23:25:31.816Z,8.85
2022-11-06T23:28:01.900Z,9.13
2022-11-06T23:30:34.471Z,7.65
2022-11-06T23:33:04.084Z,8.55
2022-11-06T23:35:33.910Z,7.55
2022-11-06T23:38:03.366Z,7.57
2022-11-06T23:40:32.895Z,7.55
2022-11-06T23:43:02.367Z,7.50
2022-11-06T23:45:47.013Z,7.30
2022-11-06T23:48:16.759Z,8.63
2022-11-06T23:50:47.232Z,6.88
2022-11-06T23:53:19.603Z,6.50
2022-11-06T23:55:49.094Z,8.43
2022-11-06T23:58:18.552Z,8.45
